Chippewa Valley Regional Airport
KEAU : now visible

Airfield :











YOU CAN JOIN US ON...

 
LOGIN :

Register | Disclaimer

   EN    FR    IT 

 









Legend :    VFR   Marginal VFR   IFR   Intensive IFR   Very Intensive IFR
Visi :
Ceiling :
>= 8 km
>= 3000ft
5 to 8 km
1000 to 3000 ft
1500m to 5 km
500 to 1000 ft
800 to 1500m
200 to 500 ft
< 800m
< 200 ft
Symbols :   Thunderstorms  Fog  Heavy snow  Heavy precipitations  Wind > 20 kt






- Airport Elevation : 913 ft
- IATA code : EAU


KEAU - Chippewa Valley Regional

CURRENT METAR :
  • 190256Z AUTO 13003KT 8SM FEW011 OVC017 01/M03 A2971 RMK AO2 SLP070 T00061028 58002

EXPIRED METARs :
  • 190156Z 15004KT 8SM BKN010 OVC090 01/M03 A2972 RMK AO2 SLP073 T00061028
  • 190056Z 16004KT 9SM OVC010 01/M03 A2971 RMK AO2 SLP073 T00061028
  • 190035Z 13004KT 8SM OVC009 01/M03 A2971 RMK AO2 T00061028

TAF KEAU
Valid from the 19 at 00:00 until the 20 at 00:00 UTC


182337Z 1900/1924 VRB03KT P6SM SCT008 BKN015
FM190300 00000KT P6SM OVC009
FM190700 14005KT 5SM -SNRA OVC006
FM191000 VRB03KT 3SM -SN OVC005
FM191200 00000KT P6SM OVC004
FM192000 27005KT P6SM OVC007



MET'MAP, your aeronautical weather chart ! - Copyright ORBIFLY December 2007 - Disclaimer

ORBIFLY MET'MAP TEAM :

Programming & Development : Alexandra Zaïnal
Concept & Development : Baudouin d'Aumeries
Co-Development & Prog : Marc-Olivier Méhu
Technical & hardware support : Manuel Goepfert

Contact : metmap@orbifly.com




SOURCES & CREDITS :

   NOAA       Earth
Advisory